Time;durP1;ratioP1;P1;durP2;ratioP2;P2;SDS_P1;SDS_P2;PMS_P1;PMS_P2;Temp;Humidity;BMP_temperature;BMP_pressure;BME280_temperature;BME280_humidity;BME280_pressure;Samples;Min_cycle;Max_cycle;Signal;HPM_P1;HPM_P2
2023/08/03 00:00:51;;;;;;;11.70;6.20;;;;;;;23.87;69.83;98576.83;79494;1295;3012958;-66
2023/08/03 00:03:18;;;;;;;8.80;6.60;;;;;;;24.09;68.62;98578.59;79340;1298;3011564;-63
2023/08/03 00:05:47;;;;;;;14.80;6.50;;;;;;;24.04;68.29;98575.81;78212;1294;3026521;-71
2023/08/03 00:08:13;;;;;;;13.60;7.10;;;;;;;23.87;68.49;98576.33;79631;1295;3013413;-68
2023/08/03 00:10:40;;;;;;;11.40;7.30;;;;;;;23.62;69.40;98577.08;81191;1295;3011870;-69
2023/08/03 00:13:08;;;;;;;9.80;6.30;;;;;;;23.39;70.11;98583.31;80472;1294;3051818;-66
2023/08/03 00:15:34;;;;;;;12.50;7.60;;;;;;;23.34;70.06;98587.16;82024;1301;3017844;-69
2023/08/03 00:18:01;;;;;;;11.40;8.00;;;;;;;23.11;71.37;98591.45;79695;1294;3011815;-71
2023/08/03 00:20:29;;;;;;;9.10;7.70;;;;;;;23.00;71.54;98588.10;78172;1300;3026738;-69
2023/08/03 00:22:55;;;;;;;9.80;5.40;;;;;;;22.93;72.30;98592.63;79301;1295;3012710;-65
2023/08/03 00:25:22;;;;;;;11.30;6.10;;;;;;;23.39;71.08;98588.35;79743;1295;3011562;-64
2023/08/03 00:27:50;;;;;;;10.80;5.40;;;;;;;23.60;70.08;98593.37;78232;1295;3053478;-72
2023/08/03 00:30:17;;;;;;;8.70;6.10;;;;;;;23.55;69.98;98598.96;79513;1300;3011589;-68
2023/08/03 00:32:43;;;;;;;14.50;7.10;;;;;;;23.48;69.95;98598.66;79376;1298;3013032;-66
2023/08/03 00:35:11;;;;;;;14.70;7.00;;;;;;;23.29;70.72;98602.10;78288;1296;3028598;-70
2023/08/03 00:37:39;;;;;;;11.10;7.00;;;;;;;23.01;71.92;98606.05;79280;1298;3013056;-66
2023/08/03 00:40:08;;;;;;;9.70;7.10;;;;;;;22.96;71.69;98608.90;79407;1295;3011806;-65
2023/08/03 00:42:36;;;;;;;7.90;5.20;;;;;;;22.74;73.40;98607.39;78235;1295;3054311;-68
2023/08/03 00:45:04;;;;;;;11.80;6.00;;;;;;;23.16;72.46;98604.59;79636;1298;3019183;-65
2023/08/03 00:47:32;;;;;;;8.80;6.60;;;;;;;23.50;70.93;98604.28;79510;1298;3011756;-71
2023/08/03 00:50:00;;;;;;;8.60;6.90;;;;;;;23.40;71.06;98605.88;78245;1300;3069939;-69
2023/08/03 00:52:26;;;;;;;13.60;7.10;;;;;;;23.14;71.97;98609.21;79590;1295;3013615;-66
2023/08/03 00:54:54;;;;;;;15.10;7.30;;;;;;;22.90;72.80;98602.54;79386;1295;3011565;-65
2023/08/03 00:57:22;;;;;;;9.80;7.70;;;;;;;22.70;73.76;98603.27;78476;1296;3054423;-65
2023/08/03 00:59:48;;;;;;;15.60;7.70;;;;;;;22.68;73.67;98604.58;79549;1301;3012864;-69
2023/08/03 01:02:15;;;;;;;7.60;6.20;;;;;;;22.49;74.81;98611.61;79535;1300;3011699;-70
2023/08/03 01:04:43;;;;;;;9.50;7.10;;;;;;;22.96;73.62;98607.45;78355;1295;3027878;-71
2023/08/03 01:07:10;;;;;;;13.90;9.20;;;;;;;23.28;72.08;98599.23;79589;1298;3019585;-64
2023/08/03 01:09:36;;;;;;;12.90;8.80;;;;;;;23.23;71.62;98597.65;79700;1295;3011925;-67
2023/08/03 01:12:05;;;;;;;15.80;9.70;;;;;;;23.11;71.67;98601.17;78527;1295;3027058;-70
2023/08/03 01:14:31;;;;;;;10.00;8.20;;;;;;;22.76;73.02;98595.95;79726;1297;3014638;-65
2023/08/03 01:16:58;;;;;;;14.30;8.80;;;;;;;22.57;73.95;98596.45;79366;1296;3011654;-69
2023/08/03 01:19:26;;;;;;;12.10;9.00;;;;;;;22.42;74.65;98597.16;78576;1298;3068384;-64
2023/08/03 01:21:52;;;;;;;11.70;6.90;;;;;;;22.28;75.29;98596.93;79379;1296;3019645;-73
2023/08/03 01:24:19;;;;;;;10.10;7.50;;;;;;;22.74;74.34;98599.32;79441;1294;3011353;-68
2023/08/03 01:26:47;;;;;;;11.00;7.50;;;;;;;23.21;72.16;98603.13;78338;1297;3026282;-67
2023/08/03 01:29:15;;;;;;;11.80;9.10;;;;;;;23.22;71.62;98602.52;79557;1295;3012897;-65
2023/08/03 01:31:42;;;;;;;12.00;8.20;;;;;;;22.99;72.42;98602.16;79494;1298;3011921;-66
2023/08/03 01:34:13;;;;;;;12.40;7.80;;;;;;;22.76;73.18;98605.17;78287;1298;3067492;-65
2023/08/03 01:36:39;;;;;;;12.10;7.80;;;;;;;22.52;74.32;98601.73;79690;1295;3013016;-68
2023/08/03 01:39:09;;;;;;;16.00;7.30;;;;;;;22.50;74.32;98604.30;78884;1295;3012374;-69
2023/08/03 01:41:36;;;;;;;8.80;4.80;;;;;;;22.31;75.50;98604.64;79685;1294;3013050;-66
2023/08/03 01:44:21;;;;;;;9.70;5.50;;;;;;;22.80;74.06;98611.84;79686;1295;3011935;-66
2023/08/03 01:46:49;;;;;;;8.70;6.10;;;;;;;23.16;72.35;98615.70;75452;1298;6062510;-67
2023/08/03 01:49:16;;;;;;;7.50;6.00;;;;;;;23.18;72.04;98614.09;79607;1295;3012993;-71
2023/08/03 01:51:42;;;;;;;9.60;6.40;;;;;;;22.99;72.39;98620.48;79646;1295;3011444;-71
2023/08/03 01:54:11;;;;;;;10.00;6.50;;;;;;;22.80;73.34;98619.67;78394;1298;3056936;-68
2023/08/03 01:56:38;;;;;;;9.30;6.70;;;;;;;22.66;73.71;98625.65;79695;1296;3012959;-68
2023/08/03 01:59:05;;;;;;;10.80;6.30;;;;;;;22.49;74.52;98631.38;79457;1295;3012214;-68
2023/08/03 02:01:33;;;;;;;8.10;4.80;;;;;;;22.35;75.42;98631.33;78394;1298;3053429;-68
2023/08/03 02:03:59;;;;;;;9.20;5.20;;;;;;;22.84;73.70;98634.00;79750;1295;3013683;-65
2023/08/03 02:06:26;;;;;;;13.70;6.10;;;;;;;23.23;72.10;98633.96;79741;1295;3011597;-69
2023/08/03 02:08:54;;;;;;;9.40;6.50;;;;;;;23.28;71.39;98636.16;78524;1298;3026761;-68
2023/08/03 02:11:21;;;;;;;12.30;6.20;;;;;;;23.09;71.64;98636.21;79538;1295;3013597;-66
2023/08/03 02:13:47;;;;;;;9.90;6.30;;;;;;;22.84;72.76;98635.98;79790;1295;3011752;-66
2023/08/03 02:16:16;;;;;;;11.00;7.00;;;;;;;22.62;73.48;98642.53;78250;1295;3029388;-65
2023/08/03 02:18:42;;;;;;;11.40;5.70;;;;;;;22.48;74.00;98641.70;79546;1298;3012779;-61
2023/08/03 02:21:09;;;;;;;11.00;6.70;;;;;;;22.46;73.92;98644.05;79520;1300;3011642;-70
2023/08/03 02:23:37;;;;;;;10.20;5.20;;;;;;;22.27;74.84;98644.13;78388;1295;3027845;-67
2023/08/03 02:26:03;;;;;;;9.10;5.80;;;;;;;22.67;73.75;98642.34;79707;1295;3013576;-71
2023/08/03 02:28:30;;;;;;;15.90;6.80;;;;;;;22.96;72.42;98645.30;79449;1294;3011541;-69
2023/08/03 02:30:58;;;;;;;12.90;5.90;;;;;;;22.91;72.28;98645.93;78187;1298;3029794;-69
2023/08/03 02:33:26;;;;;;;10.30;6.20;;;;;;;22.71;72.75;98648.48;79565;1297;3013096;-66
2023/08/03 02:35:52;;;;;;;8.10;6.30;;;;;;;22.53;73.24;98649.41;79407;1295;3013393;-65
2023/08/03 02:38:21;;;;;;;9.90;6.40;;;;;;;22.36;73.80;98646.79;78377;1295;3056628;-67
2023/08/03 02:40:48;;;;;;;14.60;6.90;;;;;;;22.20;74.16;98647.95;79765;1295;3012788;-69
2023/08/03 02:43:15;;;;;;;7.90;4.60;;;;;;;22.16;74.40;98641.27;79659;1295;3011846;-67
2023/08/03 02:45:43;;;;;;;11.00;4.80;;;;;;;22.52;73.15;98646.35;78333;1298;3052187;-69
2023/08/03 02:48:10;;;;;;;10.10;5.20;;;;;;;22.84;71.62;98643.84;79820;1295;3013864;-69
2023/08/03 02:50:37;;;;;;;8.70;5.30;;;;;;;22.90;70.75;98643.00;79645;1297;3011877;-68
2023/08/03 02:53:07;;;;;;;11.70;5.00;;;;;;;22.75;71.30;98645.50;78328;1298;3056023;-68
2023/08/03 02:55:34;;;;;;;8.30;4.80;;;;;;;22.67;71.44;98646.48;79647;1295;3012042;-66
2023/08/03 02:58:00;;;;;;;10.20;5.50;;;;;;;22.53;71.28;98651.09;79696;1294;3013083;-71
2023/08/03 03:00:29;;;;;;;7.70;5.20;;;;;;;22.31;72.26;98648.41;78651;1298;3027569;-65
2023/08/03 03:02:56;;;;;;;7.10;5.00;;;;;;;22.14;72.87;98649.20;79711;1295;3021444;-67
2023/08/03 03:05:23;;;;;;;7.60;4.80;;;;;;;22.02;73.43;98645.56;79692;1297;3011365;-67
2023/08/03 03:07:51;;;;;;;11.10;3.70;;;;;;;22.00;73.73;98652.36;78229;1298;3057556;-68
2023/08/03 03:10:18;;;;;;;6.90;3.80;;;;;;;22.68;71.74;98657.70;79688;1295;3013394;-66
2023/08/03 03:12:44;;;;;;;12.60;4.10;;;;;;;22.84;70.34;98669.19;79616;1295;3011641;-64
2023/08/03 03:15:13;;;;;;;6.80;4.30;;;;;;;22.90;69.93;98668.95;78614;1298;3027888;-68
2023/08/03 03:17:42;;;;;;;8.20;4.40;;;;;;;22.80;70.16;98671.83;80232;1295;3012880;-65
2023/08/03 03:20:11;;;;;;;5.00;4.20;;;;;;;22.64;70.67;98671.21;79257;1295;3011885;-70
2023/08/03 03:22:38;;;;;;;7.70;4.30;;;;;;;22.58;70.63;98677.83;79519;1295;3013398;-69
2023/08/03 03:25:05;;;;;;;9.50;4.40;;;;;;;22.46;71.26;98679.52;79583;1295;3012780;-66
2023/08/03 03:27:33;;;;;;;5.20;4.10;;;;;;;22.39;71.46;98678.94;78493;1295;3027532;-64
2023/08/03 03:30:00;;;;;;;5.90;4.30;;;;;;;22.37;71.29;98681.52;79613;1295;3013143;-65
2023/08/03 03:32:27;;;;;;;5.40;3.30;;;;;;;22.34;71.48;98679.89;79581;1295;3011646;-65
2023/08/03 03:34:55;;;;;;;5.60;3.30;;;;;;;22.80;70.44;98680.84;78360;1295;3027647;-65
2023/08/03 03:37:21;;;;;;;5.30;3.50;;;;;;;23.26;68.18;98680.95;79550;1296;3018822;-64
2023/08/03 03:39:48;;;;;;;5.90;3.60;;;;;;;23.19;68.00;98676.83;79450;1298;3011608;-64
2023/08/03 03:42:19;;;;;;;5.90;3.80;;;;;;;23.07;68.36;98680.06;78254;1295;3053049;-70
2023/08/03 03:44:46;;;;;;;7.10;4.10;;;;;;;22.94;68.60;98684.15;79514;1295;3013287;-66
2023/08/03 03:47:13;;;;;;;6.60;3.70;;;;;;;22.71;69.31;98685.38;79728;1298;3011959;-69
2023/08/03 03:49:41;;;;;;;7.10;3.70;;;;;;;22.62;69.59;98687.09;78398;1295;3025886;-68
2023/08/03 03:52:08;;;;;;;6.00;4.20;;;;;;;22.47;70.08;98696.73;79748;1295;3018621;-64
2023/08/03 03:54:35;;;;;;;8.20;4.00;;;;;;;22.36;70.54;98696.06;79661;1295;3011899;-64
2023/08/03 03:57:04;;;;;;;6.60;4.20;;;;;;;22.21;71.02;98695.09;78359;1295;3027160;-64
2023/08/03 03:59:31;;;;;;;4.60;3.70;;;;;;;22.20;71.03;98696.84;79727;1295;3012921;-66
2023/08/03 04:01:58;;;;;;;5.50;2.70;;;;;;;22.16;71.10;98697.95;79526;1298;3011591;-65
2023/08/03 04:04:26;;;;;;;4.90;2.70;;;;;;;22.69;69.97;98694.08;78459;1298;3068989;-65
2023/08/03 04:06:53;;;;;;;3.40;2.50;;;;;;;23.12;68.02;98692.69;79779;1295;3013606;-66
2023/08/03 04:09:20;;;;;;;6.60;3.10;;;;;;;23.07;67.28;98691.02;79715;1295;3011799;-66
2023/08/03 04:11:48;;;;;;;6.70;3.20;;;;;;;22.87;67.76;98690.36;78411;1298;3028109;-68
2023/08/03 04:14:15;;;;;;;8.50;2.90;;;;;;;22.72;68.08;98694.41;79704;1294;3013710;-67
2023/08/03 04:16:42;;;;;;;4.80;2.90;;;;;;;22.56;68.58;98700.42;79547;1298;3013611;-65
2023/08/03 04:19:09;;;;;;;4.90;3.00;;;;;;;22.47;68.96;98699.41;78345;1295;3068448;-68
2023/08/03 04:21:36;;;;;;;6.20;3.00;;;;;;;22.34;69.26;98700.08;79555;1297;3013690;-69
2023/08/03 04:24:03;;;;;;;7.50;3.00;;;;;;;22.29;69.30;98697.30;79745;1296;3013237;-69
2023/08/03 04:26:31;;;;;;;5.10;2.70;;;;;;;22.25;69.32;98706.86;78435;1296;3028775;-67
2023/08/03 04:28:58;;;;;;;6.20;3.00;;;;;;;22.26;69.25;98713.17;79731;1298;3012363;-67
2023/08/03 04:31:27;;;;;;;5.60;3.00;;;;;;;22.16;69.35;98713.96;79568;1298;3013120;-69
2023/08/03 04:33:55;;;;;;;6.10;3.00;;;;;;;22.25;68.83;98707.89;78218;1298;3068803;-68
2023/08/03 04:36:24;;;;;;;10.00;3.30;;;;;;;22.37;68.12;98711.65;79706;1296;3012880;-66
2023/08/03 04:38:50;;;;;;;4.00;2.80;;;;;;;22.38;67.43;98713.85;79641;1295;3013519;-69
2023/08/03 04:41:20;;;;;;;5.40;2.40;;;;;;;22.43;67.38;98714.76;78657;1296;3053187;-69
2023/08/03 04:43:48;;;;;;;7.80;3.10;;;;;;;22.45;66.89;98713.69;79560;1295;3011752;-66
2023/08/03 04:46:17;;;;;;;6.50;2.50;;;;;;;22.45;66.11;98714.46;78335;1295;3028044;-69
2023/08/03 04:48:43;;;;;;;5.20;2.10;;;;;;;22.47;65.84;98720.95;79694;1298;3012980;-68
2023/08/03 04:51:10;;;;;;;3.00;2.30;;;;;;;22.50;65.52;98723.48;79734;1295;3011627;-63
2023/08/03 04:53:40;;;;;;;3.80;2.10;;;;;;;22.56;65.73;98727.35;78399;1296;3055728;-71
2023/08/03 04:56:07;;;;;;;3.10;2.30;;;;;;;22.57;65.58;98732.59;79732;1295;3013281;-71
2023/08/03 04:58:33;;;;;;;7.80;2.70;;;;;;;22.62;65.39;98734.70;79709;1295;3011618;-68
2023/08/03 05:01:02;;;;;;;6.00;2.80;;;;;;;22.64;65.38;98735.27;78518;1298;3053451;-65
2023/08/03 05:03:30;;;;;;;4.60;3.00;;;;;;;22.69;65.49;98737.45;79627;1295;3013770;-64
2023/08/03 05:05:57;;;;;;;10.40;2.80;;;;;;;22.62;65.57;98738.57;79676;1295;3011713;-67
2023/08/03 05:08:25;;;;;;;5.60;2.90;;;;;;;22.66;65.55;98738.91;78474;1295;3056531;-63
2023/08/03 05:10:52;;;;;;;5.30;3.40;;;;;;;22.73;65.69;98738.31;79616;1295;3013278;-67
2023/08/03 05:13:21;;;;;;;3.80;2.60;;;;;;;22.72;65.90;98741.52;79519;1295;3013114;-66
2023/08/03 05:15:49;;;;;;;5.40;2.70;;;;;;;22.73;66.00;98739.97;78244;1298;3052379;-70
2023/08/03 05:18:15;;;;;;;4.90;2.60;;;;;;;22.77;66.10;98743.84;79745;1295;3013317;-62
2023/08/03 05:20:42;;;;;;;7.00;2.70;;;;;;;22.84;66.11;98741.64;79700;1298;3011432;-68
2023/08/03 05:23:12;;;;;;;4.70;2.60;;;;;;;22.81;66.40;98748.95;78204;1298;3028108;-68
2023/08/03 05:25:38;;;;;;;6.60;2.70;;;;;;;22.84;66.12;98744.20;79788;1295;3013111;-64
2023/08/03 05:28:05;;;;;;;4.60;2.50;;;;;;;22.84;65.87;98745.52;79483;1295;3011678;-71
2023/08/03 05:30:33;;;;;;;3.90;2.40;;;;;;;22.86;66.34;98742.48;78543;1298;3050965;-66
2023/08/03 05:33:02;;;;;;;4.30;2.40;;;;;;;22.95;65.91;98747.95;79429;1295;3013882;-67
2023/08/03 05:35:29;;;;;;;3.60;2.40;;;;;;;23.07;65.87;98753.75;79537;1295;3013183;-66
2023/08/03 05:37:57;;;;;;;5.70;2.80;;;;;;;23.04;66.12;98758.41;78258;1298;3057046;-64
2023/08/03 05:40:23;;;;;;;5.30;3.20;;;;;;;23.18;65.99;98756.77;79431;1295;3013221;-68
2023/08/03 05:42:50;;;;;;;12.20;3.50;;;;;;;23.21;66.12;98763.30;79361;1296;3011656;-66
2023/08/03 05:45:35;;;;;;;7.10;3.50;;;;;;;23.32;66.44;98763.94;78314;1295;3028133;-66
2023/08/03 05:48:04;;;;;;;8.40;3.50;;;;;;;23.42;66.09;98770.86;78337;1298;3052556;-63
2023/08/03 05:50:30;;;;;;;8.30;3.50;;;;;;;23.33;66.53;98776.19;79453;1298;3013351;-66
2023/08/03 05:52:57;;;;;;;10.40;3.60;;;;;;;23.39;66.65;98778.14;79503;1298;3011480;-64
2023/08/03 05:55:25;;;;;;;6.80;4.20;;;;;;;23.53;66.83;98777.43;78262;1301;3047426;-62
2023/08/03 05:57:52;;;;;;;5.40;3.60;;;;;;;23.63;67.51;98785.63;79464;1295;3012881;-64
2023/08/03 06:00:20;;;;;;;10.10;3.70;;;;;;;24.32;66.13;98782.27;79618;1296;3013124;-68
2023/08/03 06:02:49;;;;;;;8.90;4.50;;;;;;;24.96;63.85;98778.44;78395;1298;3054495;-67
2023/08/03 06:05:51;;;;;;;9.80;4.30;;;;;;;25.13;63.42;98776.19;79521;1294;3012678;-69
2023/08/03 06:08:23;;;;;;;7.80;4.20;;;;;;;25.10;62.60;98777.34;77719;1307;3057341;-67
2023/08/03 06:10:51;;;;;;;9.40;4.10;;;;;;;24.90;61.97;98779.98;79431;1295;3011807;-66
2023/08/03 06:13:21;;;;;;;10.60;3.70;;;;;;;24.72;62.01;98777.25;78379;1295;3052437;-69
2023/08/03 06:15:47;;;;;;;8.90;3.70;;;;;;;24.59;61.22;98778.99;79416;1298;3013343;-66
2023/08/03 06:18:15;;;;;;;5.10;3.30;;;;;;;24.60;60.74;98776.65;79731;1298;3013202;-61
2023/08/03 06:20:50;;;;;;;6.60;3.70;;;;;;;24.57;61.13;98779.19;78464;1299;3069000;-63
2023/08/03 06:23:26;;;;;;;7.00;4.40;;;;;;;24.65;61.53;98779.41;79066;1294;3011840;-66
2023/08/03 06:25:55;;;;;;;8.30;4.20;;;;;;;24.67;61.56;98784.55;79023;1296;3011615;-63
2023/08/03 06:28:23;;;;;;;6.30;3.50;;;;;;;24.78;61.23;98778.59;79479;1301;3012733;-67
2023/08/03 06:30:51;;;;;;;8.60;3.90;;;;;;;24.81;60.83;98778.47;79524;1295;3011799;-67
2023/08/03 06:33:23;;;;;;;9.10;4.20;;;;;;;24.84;60.99;98781.95;78254;1295;3054719;-65
2023/08/03 06:35:53;;;;;;;11.70;5.70;;;;;;;24.93;61.08;98783.10;79602;1298;3011792;-68
2023/08/03 06:38:21;;;;;;;8.50;4.90;;;;;;;24.91;61.18;98782.34;78433;1299;3053855;-68
2023/08/03 06:40:48;;;;;;;11.70;5.10;;;;;;;25.06;60.67;98776.79;80336;1298;3012994;-67
2023/08/03 06:43:14;;;;;;;11.20;6.10;;;;;;;25.19;60.56;98781.79;79347;1301;3012260;-69
2023/08/03 06:45:42;;;;;;;11.80;5.70;;;;;;;25.27;60.06;98777.77;78404;1296;3058001;-65
2023/08/03 06:48:09;;;;;;;14.50;5.50;;;;;;;25.25;60.09;98781.70;79903;1295;3018444;-67
2023/08/03 06:50:36;;;;;;;11.20;5.50;;;;;;;25.15;60.01;98781.48;79674;1296;3011789;-62
2023/08/03 06:53:04;;;;;;;15.90;6.40;;;;;;;25.19;60.01;98783.14;78417;1298;3029791;-65
2023/08/03 06:55:31;;;;;;;10.40;6.40;;;;;;;25.23;59.93;98788.69;79516;1295;3014112;-64
2023/08/03 06:57:58;;;;;;;9.40;6.50;;;;;;;25.19;59.78;98792.27;79487;1301;3011819;-66
2023/08/03 07:00:26;;;;;;;11.20;6.60;;;;;;;25.24;59.79;98795.71;78236;1295;3056863;-62
2023/08/03 07:02:53;;;;;;;15.20;9.00;;;;;;;25.38;59.56;98792.58;79406;1295;3013219;-69
2023/08/03 07:05:19;;;;;;;16.50;8.50;;;;;;;25.47;59.40;98795.07;79352;1301;3013860;-64
2023/08/03 07:07:47;;;;;;;20.60;10.70;;;;;;;25.53;59.11;98798.39;78144;1298;3027244;-71
2023/08/03 07:10:14;;;;;;;25.00;13.10;;;;;;;25.56;59.15;98800.58;79412;1295;3012921;-68
2023/08/03 07:12:42;;;;;;;30.00;14.60;;;;;;;25.63;59.39;98798.79;79656;1295;3011598;-69
2023/08/03 07:15:10;;;;;;;30.20;15.60;;;;;;;25.75;59.28;98795.19;78101;1298;3055138;-69
2023/08/03 07:17:36;;;;;;;34.60;16.20;;;;;;;25.79;58.78;98800.23;79571;1295;3013060;-73
2023/08/03 07:20:03;;;;;;;26.70;14.40;;;;;;;25.85;58.72;98799.65;79583;1298;3011550;-65
2023/08/03 07:22:31;;;;;;;30.20;14.00;;;;;;;25.84;58.51;98802.48;78607;1295;3025265;-67
2023/08/03 07:24:58;;;;;;;20.60;11.70;;;;;;;25.85;57.73;98799.94;80375;1301;3019086;-67
2023/08/03 07:27:24;;;;;;;19.40;11.90;;;;;;;25.95;58.91;98805.27;79734;1295;3011636;-67
2023/08/03 07:29:53;;;;;;;17.10;9.20;;;;;;;26.04;59.47;98801.71;78814;1298;3026880;-69
2023/08/03 07:32:20;;;;;;;14.70;8.50;;;;;;;26.02;59.93;98802.46;79984;1298;3013668;-67
2023/08/03 07:34:46;;;;;;;17.50;8.40;;;;;;;26.18;59.43;98799.80;79831;1298;3012134;-71
2023/08/03 07:37:14;;;;;;;9.30;6.80;;;;;;;26.27;59.57;98806.23;78458;1298;3051250;-68
2023/08/03 07:39:41;;;;;;;11.50;6.90;;;;;;;26.28;59.21;98802.86;79892;1295;3013142;-65
2023/08/03 07:42:07;;;;;;;13.70;7.40;;;;;;;26.27;58.48;98810.23;79420;1300;3011811;-66
2023/08/03 07:44:35;;;;;;;9.70;6.20;;;;;;;26.36;58.02;98815.11;78567;1295;3026756;-65
2023/08/03 07:47:02;;;;;;;11.60;6.00;;;;;;;26.41;57.70;98817.11;79570;1295;3013051;-69
2023/08/03 07:49:28;;;;;;;10.70;5.00;;;;;;;26.49;56.57;98819.09;79546;1301;3013669;-64
2023/08/03 07:51:56;;;;;;;5.60;4.40;;;;;;;26.47;56.51;98818.14;78504;1300;3026015;-69
2023/08/03 07:54:24;;;;;;;6.60;4.30;;;;;;;26.43;56.61;98823.77;79641;1300;3013257;-62
2023/08/03 07:56:50;;;;;;;5.90;4.20;;;;;;;26.36;56.35;98823.40;79424;1300;3011574;-71
2023/08/03 07:59:18;;;;;;;6.30;4.40;;;;;;;26.44;55.80;98820.88;78468;1300;3057871;-68
2023/08/03 08:01:45;;;;;;;6.70;4.70;;;;;;;26.46;55.72;98818.64;79787;1298;3013632;-67
2023/08/03 08:04:11;;;;;;;7.40;4.20;;;;;;;26.43;55.89;98822.70;79622;1295;3013209;-65
2023/08/03 08:06:39;;;;;;;4.20;3.50;;;;;;;26.59;55.72;98822.36;78539;1300;3028014;-66
2023/08/03 08:09:06;;;;;;;7.20;4.10;;;;;;;26.76;55.23;98824.31;79658;1301;3014809;-63
2023/08/03 08:11:32;;;;;;;5.80;3.80;;;;;;;26.88;54.98;98817.73;79721;1300;3011683;-67
2023/08/03 08:14:00;;;;;;;5.40;3.50;;;;;;;26.97;54.87;98818.63;78299;1298;3025911;-67
2023/08/03 08:16:27;;;;;;;5.30;3.40;;;;;;;26.98;54.29;98817.75;79407;1300;3012879;-66
2023/08/03 08:18:54;;;;;;;7.30;3.70;;;;;;;27.08;53.95;98817.92;79767;1298;3012993;-68
2023/08/03 08:21:22;;;;;;;4.90;3.50;;;;;;;27.04;53.85;98820.11;78353;1301;3027044;-66
2023/08/03 08:23:48;;;;;;;5.10;3.40;;;;;;;27.09;53.95;98818.71;79667;1301;3013442;-70
2023/08/03 08:26:16;;;;;;;4.50;3.70;;;;;;;27.28;53.96;98816.22;79681;1300;3011821;-65
2023/08/03 08:28:45;;;;;;;3.60;3.30;;;;;;;27.44;53.55;98820.04;78416;1295;3057204;-70
2023/08/03 08:31:12;;;;;;;5.20;3.30;;;;;;;27.52;52.33;98821.85;79774;1296;3011858;-63
2023/08/03 08:33:38;;;;;;;3.70;3.10;;;;;;;27.52;52.25;98818.04;79836;1295;3012030;-69
2023/08/03 08:36:06;;;;;;;10.80;3.60;;;;;;;27.68;52.80;98821.23;78435;1301;3053300;-65
2023/08/03 08:38:33;;;;;;;2.80;2.60;;;;;;;27.88;53.05;98823.38;79633;1301;3013668;-69
2023/08/03 08:41:03;;;;;;;4.80;3.30;;;;;;;28.06;52.77;98824.60;79671;1299;3013004;-72
2023/08/03 08:43:31;;;;;;;5.30;3.10;;;;;;;28.09;51.58;98826.45;78482;1296;3055926;-68
2023/08/03 08:45:58;;;;;;;3.90;2.80;;;;;;;27.93;51.50;98827.91;79575;1300;3018484;-68
2023/08/03 08:48:24;;;;;;;4.10;3.10;;;;;;;28.00;51.07;98827.06;79609;1299;3011689;-69
2023/08/03 08:50:52;;;;;;;6.40;2.80;;;;;;;28.16;50.76;98823.35;78689;1298;3026904;-72
2023/08/03 08:53:19;;;;;;;7.00;3.10;;;;;;;28.33;50.66;98826.45;79839;1300;3018418;-71
2023/08/03 08:55:46;;;;;;;4.00;3.00;;;;;;;28.46;50.53;98827.21;79550;1300;3011654;-75
2023/08/03 08:58:14;;;;;;;4.50;3.00;;;;;;;28.45;50.39;98836.59;78417;1300;3025595;-68
2023/08/03 09:00:45;;;;;;;3.80;2.80;;;;;;;28.38;50.44;98833.45;79765;1302;3013389;-66
2023/08/03 09:03:14;;;;;;;6.50;3.20;;;;;;;28.38;50.31;98824.06;78302;1302;3050291;-63
2023/08/03 09:05:40;;;;;;;6.00;3.20;;;;;;;28.38;50.50;98830.27;79631;1301;3013560;-72
2023/08/03 09:08:09;;;;;;;5.80;3.00;;;;;;;28.30;50.21;98831.67;79763;1301;3013347;-75
2023/08/03 09:10:53;;;;;;;6.80;3.20;;;;;;;28.27;50.26;98825.36;78389;1302;3051793;-65
2023/08/03 09:13:28;;;;;;;4.00;2.70;;;;;;;28.37;50.14;98828.40;78538;1296;3056944;-69
2023/08/03 09:15:57;;;;;;;6.10;3.20;;;;;;;28.37;50.47;98826.58;79115;1296;3011551;-68
2023/08/03 09:18:28;;;;;;;7.50;2.90;;;;;;;28.33;50.62;98831.90;79663;1297;3013502;-67
2023/08/03 09:21:12;;;;;;;6.50;2.60;;;;;;;28.41;50.58;98823.82;78320;1299;3049433;-65
2023/08/03 09:23:40;;;;;;;4.80;2.70;;;;;;;28.39;50.45;98832.20;78365;1301;3053356;-71
2023/08/03 09:26:07;;;;;;;5.20;2.30;;;;;;;28.51;50.28;98833.35;79584;1301;3012938;-68
2023/08/03 09:28:38;;;;;;;3.70;2.70;;;;;;;28.60;49.06;98836.92;79471;1300;3011460;-67
2023/08/03 09:31:06;;;;;;;3.80;2.90;;;;;;;28.52;49.05;98839.69;78468;1295;3058003;-67
2023/08/03 09:33:33;;;;;;;4.10;2.60;;;;;;;28.41;48.64;98847.27;79771;1298;3013088;-68
2023/08/03 09:36:04;;;;;;;4.40;2.70;;;;;;;28.49;48.93;98838.85;79797;1300;3011459;-70
2023/08/03 09:38:32;;;;;;;4.40;2.70;;;;;;;28.52;48.72;98844.73;78558;1301;3052248;-65
2023/08/03 09:40:59;;;;;;;4.00;2.70;;;;;;;28.49;48.24;98837.52;79643;1301;3014538;-63
2023/08/03 09:43:26;;;;;;;6.10;2.70;;;;;;;28.50;48.88;98843.63;79480;1301;3011671;-71
2023/08/03 09:45:55;;;;;;;3.10;2.50;;;;;;;28.63;49.38;98833.07;78422;1300;3055863;-72
2023/08/03 09:48:22;;;;;;;3.60;2.50;;;;;;;28.83;49.18;98835.75;79568;1300;3013324;-70
2023/08/03 09:50:55;;;;;;;2.90;2.60;;;;;;;28.86;48.36;98836.78;79853;1301;3011587;-69
2023/08/03 09:53:30;;;;;;;3.10;2.80;;;;;;;28.80;48.25;98849.16;78393;1309;3052021;-67
2023/08/03 09:56:02;;;;;;;4.50;2.80;;;;;;;28.74;48.44;98840.26;79113;1298;3011885;-68
2023/08/03 09:58:42;;;;;;;;;;;;;;;28.72;47.65;98840.58;79612;1298;3011790;-74
2023/08/03 10:01:12;;;;;;;7.00;2.70;;;;;;;28.74;47.77;98838.36;78264;1301;3071693;-70
2023/08/03 10:03:41;;;;;;;4.90;3.10;;;;;;;28.78;48.73;98838.47;79545;1301;3013004;-68
2023/08/03 10:06:15;;;;;;;8.00;3.40;;;;;;;28.78;49.82;98833.82;78473;1301;3057039;-66
2023/08/03 10:08:52;;;;;;;4.50;3.20;;;;;;;28.74;49.78;98836.31;79649;1295;3011426;-71
2023/08/03 10:11:20;;;;;;;5.40;3.10;;;;;;;28.86;48.72;98840.10;78307;1300;3053218;-68
2023/08/03 10:13:47;;;;;;;3.90;2.50;;;;;;;28.79;47.81;98840.45;79425;1301;3013081;-68
2023/08/03 10:16:14;;;;;;;5.60;3.10;;;;;;;28.72;47.51;98838.08;79677;1300;3013157;-71
2023/08/03 10:18:42;;;;;;;7.00;3.20;;;;;;;28.70;48.61;98842.48;78255;1300;3028593;-69
2023/08/03 10:21:09;;;;;;;3.10;2.80;;;;;;;28.86;48.55;98838.52;79838;1295;3013226;-71
2023/08/03 10:23:38;;;;;;;4.90;2.90;;;;;;;29.17;47.50;98835.41;79819;1297;3013139;-67
2023/08/03 10:26:09;;;;;;;5.70;2.80;;;;;;;29.41;46.46;98831.63;78500;1296;3052881;-70
2023/08/03 10:28:38;;;;;;;3.60;2.90;;;;;;;29.38;46.34;98831.34;79664;1300;3012080;-70
2023/08/03 10:31:11;;;;;;;5.10;3.30;;;;;;;29.40;47.35;98831.77;78364;1298;3053428;-69
2023/08/03 10:33:47;;;;;;;;;;;;;;;29.25;48.62;98832.56;79531;1300;3011605;-70
2023/08/03 10:36:27;;;;;;;8.30;3.30;;;;;;;29.42;48.60;98826.58;78495;1301;3069138;-68
2023/08/03 10:38:59;;;;;;;3.60;3.10;;;;;;;29.67;47.86;98830.00;78335;1297;3051773;-72
2023/08/03 10:41:36;;;;;;;3.10;2.80;;;;;;;29.91;47.32;98828.84;79369;1302;3011580;-69
2023/08/03 10:44:07;;;;;;;4.70;3.10;;;;;;;29.97;45.26;98830.27;78210;1299;3049311;-71
2023/08/03 10:46:37;;;;;;;6.80;3.40;;;;;;;29.77;45.71;98829.56;79710;1301;3011867;-67
2023/08/03 10:49:17;;;;;;;4.90;3.90;;;;;;;29.55;47.23;98836.23;78283;1301;3049191;-72
2023/08/03 10:51:45;;;;;;;7.70;3.30;;;;;;;29.46;47.90;98833.80;78476;1300;3052454;-69
2023/08/03 10:54:12;;;;;;;7.80;3.60;;;;;;;29.58;47.68;98833.06;79618;1295;3013285;-71
2023/08/03 10:56:38;;;;;;;5.90;3.50;;;;;;;29.81;47.03;98828.33;79471;1301;3012171;-69
2023/08/03 10:59:06;;;;;;;4.40;3.20;;;;;;;30.06;45.98;98824.91;78392;1301;3027189;-70
2023/08/03 11:01:32;;;;;;;8.30;2.90;;;;;;;30.17;45.01;98827.81;79721;1296;3012955;-69
2023/08/03 11:03:59;;;;;;;4.10;3.00;;;;;;;30.17;43.81;98830.34;79554;1296;3013132;-69
2023/08/03 11:06:27;;;;;;;3.30;3.00;;;;;;;30.22;42.94;98832.25;78610;1301;3026633;-70
2023/08/03 11:08:55;;;;;;;4.30;2.60;;;;;;;30.03;41.85;98834.92;79672;1298;3013868;-65
2023/08/03 11:11:23;;;;;;;4.80;3.00;;;;;;;29.96;42.90;98834.77;79411;1299;3011512;-67
2023/08/03 11:13:52;;;;;;;3.10;2.80;;;;;;;30.01;43.94;98833.46;78354;1302;3055567;-75
2023/08/03 11:16:19;;;;;;;6.00;2.80;;;;;;;30.31;44.06;98830.92;79486;1295;3012609;-68
2023/08/03 11:18:46;;;;;;;3.40;3.10;;;;;;;30.51;43.16;98838.22;79643;1301;3011710;-64